CDT,Max TemperatureF,Mean TemperatureF,Min TemperatureF,Max Dew PointF,MeanDew PointF,Min DewpointF,Max Humidity, Mean Humidity, Min Humidity, Max Sea Level PressureIn, Mean Sea Level PressureIn, Min Sea Level PressureIn, Max VisibilityMiles, Mean VisibilityMiles, Min VisibilityMiles, Max Wind SpeedMPH, Mean Wind SpeedMPH, Max Gust SpeedMPH,PrecipitationIn, CloudCover, Events, WindDirDegrees
2012-9-1,87,72,57,63,57,53,86,62,37,30.08,30.03,29.98,10,10,10,14,7,18,0.00,0,,65
2012-9-2,90,72,54,63,58,51,93,66,38,30.00,29.93,29.85,10,10,10,16,7,22,0.00,0,,173
2012-9-3,86,74,62,69,65,60,93,74,55,29.91,29.89,29.85,10,10,9,10,4,14,0.00,1,,180
2012-9-4,93,77,61,69,62,57,97,67,36,29.97,29.84,29.72,10,8,2,37,7,54,0.00,2,Rain-Thunderstorm,286
2012-9-5,81,67,52,61,54,46,100,66,32,29.95,29.85,29.73,10,10,7,16,7,25,0.00,1,Rain,341
2012-9-6,82,65,47,53,48,44,93,60,26,30.01,29.92,29.83,10,10,10,17,6,22,0.00,1,,160
2012-9-7,72,61,49,57,50,41,84,62,39,30.09,29.98,29.79,10,10,10,22,12,29,0.00,4,,353
2012-9-8,84,64,44,46,42,38,92,57,22,30.09,30.02,29.86,10,10,10,29,12,38,0.00,0,,301
2012-9-9,75,60,44,50,45,42,93,64,35,30.23,30.15,30.08,10,10,10,12,5,14,0.00,0,,299
2012-9-10,84,66,47,50,46,43,86,56,26,30.11,29.98,29.85,10,10,10,29,15,39,0.00,0,,182
2012-9-11,94,77,59,51,49,44,75,48,20,29.86,29.81,29.75,10,10,10,31,18,41,0.00,0,,191
2012-9-12,75,64,52,51,46,39,100,70,40,30.27,30.12,29.87,10,10,6,20,7,24,0.21,6,Rain,354
2012-9-13,76,63,49,54,47,35,100,63,25,30.40,30.34,30.27,10,7,2,13,7,18,0.00,3,,218
2012-9-14,79,63,47,45,43,38,71,47,23,30.32,30.27,30.22,10,10,10,14,7,33,0.00,0,,199
2012-9-15,81,64,47,46,42,36,80,50,20,30.22,30.14,30.03,10,10,9,25,12,32,0.00,0,,201
2012-9-16,78,65,51,57,51,46,96,68,40,30.02,29.95,29.89,10,10,7,17,9,22,0.00,0,,215
2012-9-17,64,52,40,47,42,33,93,64,34,30.06,30.00,29.91,10,9,2,25,12,31,0.06,4,Rain,343
2012-9-18,62,49,35,39,34,28,92,61,29,30.09,30.02,29.90,10,10,10,18,8,23,0.00,2,,282
2012-9-19,78,61,43,45,37,26,80,50,20,29.94,29.81,29.71,10,10,10,33,14,43,0.00,0,,253
2012-9-20,68,53,38,36,31,26,70,46,22,30.01,29.96,29.91,10,10,2,24,9,32,0.00,1,,284
2012-9-21,72,57,41,43,36,31,80,52,23,29.93,29.87,29.81,10,10,10,25,9,32,T,4,,337
2012-9-22,60,45,30,36,28,22,72,50,28,30.31,30.20,29.97,10,10,10,24,12,31,0.00,2,,333
2012-9-23,62,45,27,31,25,22,85,54,23,30.38,30.30,30.21,10,10,8,14,6,17,0.00,0,,288
2012-9-24,79,56,33,40,33,25,70,45,19,30.20,29.97,29.82,10,10,9,30,13,37,0.00,0,,216
2012-9-25,76,59,41,42,37,30,82,52,21,29.96,29.87,29.81,10,10,9,13,8,21,0.00,0,,337
2012-9-26,69,50,31,35,31,27,82,53,23,30.20,30.11,29.98,10,10,8,15,8,21,0.00,0,,352
2012-9-27,72,51,29,38,33,26,85,55,25,30.27,30.21,30.16,10,9,7,10,4,15,0.00,0,,48
2012-9-28,76,56,36,42,35,30,82,52,21,30.25,30.18,30.13,10,9,6,10,3,13,0.00,0,,182
2012-9-29,82,63,43,38,36,33,65,43,20,30.17,30.11,30.02,10,10,8,12,4,14,0.00,0,,277
2012-9-30,82,63,43,41,38,34,71,46,21,30.03,29.96,29.90,10,9,7,9,3,13,0.00,0,,304